Stations météo

réclame
Mon MeteoGroup
Lycksele, Suède (2262): Température de l'air & dewpoint: 11.11.2017 23:00:00 - 17.11.2017 23:00:00 (CET)Lycksele, Suède (2262): Vitesse du vent: 11.11.2017 23:00:00 - 17.11.2017 23:00:00 (CET)Lycksele, Suède (2262): Direction du vent: 11.11.2017 23:00:00 - 17.11.2017 23:00:00 (CET)Lycksele, Suède (2262): visibility: 11.11.2017 23:00:00 - 17.11.2017 23:00:00 (CET)
Date & Time tt [°C] td [°C] ff [km/h] ff [knt] dd vv [km]
17.11.2017 23:00:00 -15,0 -18,0 0 0 N 10
17.11.2017 22:00:00 -14,0 -16,0 0 0 N 10
17.11.2017 21:00:00 -14,0 -16,0 0 0 N 10
17.11.2017 20:00:00 -13,0 -16,0 0 0 N 10
17.11.2017 19:00:00 -11,0 -13,0 0 0 N 10
17.11.2017 18:00:00 -9,0 -11,0 0 0 N 6
17.11.2017 17:00:00 -7,0 -9,0 4 2 W 10
17.11.2017 16:00:00 -6,0 -7,0 4 2 WNW 7
17.11.2017 15:00:00 -3,0 -5,0 8 4 NW 10
17.11.2017 14:00:00 -3,0 -4,0 4 2 NW 6
17.11.2017 13:00:00 -3,0 -4,0 8 4 WNW 2,9
17.11.2017 12:00:00 -3,0 -4,0 8 4 WNW 5
17.11.2017 11:00:00 -3,0 -4,0 13 7 WNW 5
17.11.2017 10:00:00 -3,0 -4,0 15 8 WNW 3,0
17.11.2017 09:00:00 -2,0 -3,0 5 3 NW 1,6
17.11.2017 08:00:00 -2,0 -4,0 8 4 NW 1,7
17.11.2017 07:00:00 -3,0 -4,0 0 0 N 3,4
17.11.2017 06:00:00 - - - - - -
17.11.2017 05:00:00 -4,0 -5,0 4 2 NW 7
17.11.2017 04:00:00 -3,0 -4,0 0 0 N 2,9
17.11.2017 03:00:00 -3,0 -4,0 0 0 N 1,8
17.11.2017 02:00:00 -3,0 -4,0 4 2 SE 2,6
17.11.2017 01:00:00 -3,0 -4,0 5 3 SSE 2,3
17.11.2017 00:00:00 -3,0 -4,0 9 5 SE 10
16.11.2017 23:00:00 -3,0 -4,0 9 5 SE 3,1
16.11.2017 22:00:00 -3,0 -5,0 11 6 SE 5
16.11.2017 21:00:00 -4,0 -5,0 13 7 SE 10
16.11.2017 20:00:00 -7,0 -8,0 8 4 ESE 10
16.11.2017 19:00:00 -8,0 -10,0 0 0 N 10
16.11.2017 18:00:00 -12,0 -14,0 0 0 N 0,6
16.11.2017 17:00:00 -12,0 -14,0 0 0 N 10
16.11.2017 16:00:00 -11,0 -13,0 0 0 N 10
16.11.2017 15:00:00 -9,0 -11,0 4 2 - 10
16.11.2017 14:00:00 -10,0 -11,0 0 0 N 10
16.11.2017 13:00:00 -9,0 -11,0 2 1 - 10
16.11.2017 12:00:00 -9,0 -11,0 2 1 - 10
16.11.2017 11:00:00 -10,0 -12,0 4 2 NW 10
16.11.2017 10:00:00 -12,0 -14,0 0 0 N 10
16.11.2017 09:00:00 -14,0 -16,0 0 0 N 10
16.11.2017 08:00:00 -15,0 -18,0 0 0 N 10
16.11.2017 07:00:00 -14,0 -17,0 0 0 N 10
16.11.2017 06:00:00 -13,0 -15,0 0 0 N 10
16.11.2017 05:00:00 -13,0 -15,0 2 1 W 10
16.11.2017 04:00:00 -14,0 -16,0 5 3 WNW 10
16.11.2017 03:00:00 -12,0 -14,0 5 3 WNW 10
16.11.2017 02:00:00 -9,0 -11,0 5 3 WNW 10
16.11.2017 01:00:00 -8,0 -10,0 8 4 WNW 10
16.11.2017 00:00:00 -10,0 -12,0 5 3 WNW 10
15.11.2017 23:00:00 -9,0 -11,0 4 2 WNW 4,0
15.11.2017 22:00:00 -13,0 -15,0 0 0 N 10
15.11.2017 21:00:00 -16,0 -18,0 0 0 N 10
15.11.2017 20:00:00 -17,0 -19,0 2 1 - 10
15.11.2017 19:00:00 -16,0 -19,0 0 0 N 10
15.11.2017 18:00:00 -15,0 -17,0 0 0 N 10
15.11.2017 17:00:00 -14,0 -16,0 0 0 N 10
15.11.2017 16:00:00 -14,0 -16,0 2 1 W 10
15.11.2017 15:00:00 -14,0 -17,0 0 0 N 10
15.11.2017 14:00:00 -15,0 -17,0 0 0 N 10
15.11.2017 13:00:00 -13,0 -15,0 0 0 N 10
15.11.2017 12:00:00 -14,0 -16,0 0 0 N 10
15.11.2017 11:00:00 -15,0 -17,0 0 0 N 10
15.11.2017 10:00:00 -18,0 -21,0 0 0 N 10
15.11.2017 09:00:00 -19,0 -22,0 0 0 N 10
15.11.2017 08:00:00 -19,0 -22,0 2 1 WSW 10
15.11.2017 07:00:00 -19,0 -22,0 0 0 N 10
15.11.2017 06:00:00 -19,0 -22,0 0 0 N 10
15.11.2017 05:00:00 -19,0 -21,0 0 0 N 10
15.11.2017 04:00:00 -18,0 -21,0 0 0 N 10
15.11.2017 03:00:00 -18,0 -21,0 0 0 N 10
15.11.2017 02:00:00 -18,0 -21,0 0 0 N 10
15.11.2017 01:00:00 -18,0 -20,0 0 0 N 10
15.11.2017 00:00:00 -17,0 -19,0 0 0 N 10
14.11.2017 23:00:00 -16,0 -19,0 0 0 N 10
14.11.2017 22:00:00 -16,0 -19,0 0 0 N 10
14.11.2017 21:00:00 -15,0 -18,0 2 1 - 10
14.11.2017 20:00:00 -15,0 -17,0 0 0 N 10
14.11.2017 19:00:00 -14,0 -16,0 0 0 N 10
14.11.2017 18:00:00 -14,0 -16,0 0 0 N 10
14.11.2017 17:00:00 -12,0 -14,0 0 0 N 10
14.11.2017 16:00:00 -11,0 -13,0 0 0 N 10
14.11.2017 15:00:00 -11,0 -13,0 0 0 N 10
14.11.2017 14:00:00 -10,0 -12,0 0 0 N 10
14.11.2017 13:00:00 -9,0 -11,0 5 3 WNW 10
14.11.2017 12:00:00 -10,0 -11,0 8 4 NW 10
14.11.2017 11:00:00 -10,0 -12,0 4 2 WNW 10
14.11.2017 10:00:00 -12,0 -13,0 4 2 NW 10
14.11.2017 09:00:00 -14,0 -16,0 0 0 N 10
14.11.2017 08:00:00 -12,0 -14,0 0 0 N 10
14.11.2017 07:00:00 -11,0 -13,0 0 0 N 10
14.11.2017 06:00:00 -12,0 -14,0 0 0 N 10
14.11.2017 05:00:00 -12,0 -14,0 0 0 N 10
14.11.2017 04:00:00 -10,0 -12,0 4 2 - 10
14.11.2017 03:00:00 -9,0 -11,0 5 3 W 10
14.11.2017 02:00:00 -11,0 -13,0 8 4 W 10
14.11.2017 01:00:00 -9,0 -10,0 2 1 - 10
14.11.2017 00:00:00 -9,0 -10,0 5 3 WNW 4,7
13.11.2017 23:00:00 -6,0 -7,0 2 1 - 10
13.11.2017 22:00:00 -5,0 -6,0 5 3 W 10
13.11.2017 21:00:00 -4,0 -6,0 4 2 W 10
13.11.2017 20:00:00 -5,0 -6,0 4 2 WNW 10
13.11.2017 19:00:00 -3,0 -5,0 2 1 - 10
13.11.2017 18:00:00 -2,0 -4,0 4 2 - 10
13.11.2017 17:00:00 -4,0 -5,0 4 2 - 10
13.11.2017 16:00:00 -4,0 -5,0 0 0 N 10
13.11.2017 15:00:00 -4,0 -5,0 0 0 N 10
13.11.2017 14:00:00 -3,0 -5,0 0 0 N 10
13.11.2017 13:00:00 -3,0 -5,0 0 0 N 10
13.11.2017 12:00:00 -4,0 -6,0 0 0 N 10
13.11.2017 11:00:00 -6,0 -7,0 5 3 - 10
13.11.2017 10:00:00 -10,0 -12,0 0 0 N 10
13.11.2017 09:00:00 -9,0 -11,0 0 0 N 2,6
13.11.2017 08:00:00 -6,0 -8,0 5 3 WSW 10
13.11.2017 07:00:00 - - - - - -
13.11.2017 06:00:00 -4,0 -5,0 8 4 WSW 10
13.11.2017 05:00:00 -2,0 -4,0 8 4 NW 5
13.11.2017 04:00:00 -2,0 -4,0 8 4 WNW 10
13.11.2017 03:00:00 -2,0 -3,0 11 6 WNW 2,6
13.11.2017 02:00:00 -2,0 -3,0 11 6 WNW 6
13.11.2017 01:00:00 -1,0 -3,0 13 7 NW 10
13.11.2017 00:00:00 -1,0 -3,0 11 6 WNW 10
12.11.2017 23:00:00 -1,0 -3,0 11 6 NW 10
12.11.2017 22:00:00 -1,0 -3,0 11 6 NW 10
12.11.2017 21:00:00 -1,0 -2,0 9 5 NW 10
12.11.2017 20:00:00 -1,0 -2,0 9 5 NW 10
12.11.2017 19:00:00 -1,0 -2,0 9 5 NW 10
12.11.2017 18:00:00 -1,0 -2,0 11 6 NW 10
12.11.2017 17:00:00 -1,0 -2,0 13 7 NNW 10
12.11.2017 16:00:00 -1,0 -2,0 13 7 NNW 4,9
12.11.2017 15:00:00 -1,0 -2,0 11 6 NW 2,4
12.11.2017 14:00:00 -1,0 -2,0 15 8 NNW 1,7
12.11.2017 13:00:00 -1,0 -2,0 16 9 NNW 2,0
12.11.2017 12:00:00 -1,0 -2,0 18 10 NW 1,9
12.11.2017 11:00:00 -1,0 -2,0 21 11 NW 3,1
12.11.2017 10:00:00 -1,0 -2,0 18 10 NNW 2,4
12.11.2017 09:00:00 -1,0 -2,0 18 10 NW 2,7
12.11.2017 08:00:00 -1,0 -2,0 21 11 NW 2,9
12.11.2017 07:00:00 -1,0 -3,0 18 10 NW 10
12.11.2017 06:00:00 0,0 -2,0 16 9 NW 10
12.11.2017 05:00:00 0,0 -2,0 13 7 NW 10
12.11.2017 04:00:00 0,0 -2,0 13 7 NW 10
12.11.2017 03:00:00 0,0 -2,0 13 7 NW 10
12.11.2017 02:00:00 -1,0 -2,0 13 7 NW 10
12.11.2017 01:00:00 -1,0 -2,0 9 5 NW 5
12.11.2017 00:00:00 -1,0 -2,0 8 4 NW 10
11.11.2017 23:00:00 -2,0 -3,0 5 3 WNW 6

tt = Température de l'air
td = dewpoint
ff = Vitesse du vent
dd = Direction du vent
vv = visibility

stations d'obs. à proximité